Time;durP1;ratioP1;P1;durP2;ratioP2;P2;SDS_P1;SDS_P2;PMS_P1;PMS_P2;Temp;Humidity;BMP_temperature;BMP_pressure;BME280_temperature;BME280_humidity;BME280_pressure;Samples;Min_cycle;Max_cycle;Signal;HPM_P1;HPM_P2
2021/12/23 00:00:44;;;;;;;18.40;8.00;;;;;;;-1.99;70.14;97694.19;5096810;28;20888;-32
2021/12/23 00:03:11;;;;;;;18.73;11.10;;;;;;;-2.03;69.86;97690.19;5096715;28;20487;-32
2021/12/23 00:05:38;;;;;;;23.13;9.93;;;;;;;-2.06;70.03;97693.91;5097074;28;20446;-32
2021/12/23 00:08:06;;;;;;;9.80;7.17;;;;;;;-2.07;70.22;97697.44;5096652;28;20808;-31
2021/12/23 00:10:33;;;;;;;12.67;9.10;;;;;;;-2.12;70.46;97694.44;5096977;28;20447;-32
2021/12/23 00:13:00;;;;;;;19.90;9.30;;;;;;;-2.18;70.43;97689.75;5096577;28;20807;-32
2021/12/23 00:15:36;;;;;;;14.23;8.60;;;;;;;-2.33;70.82;97675.47;5096915;28;20443;-32
2021/12/23 00:18:16;;;;;;;13.20;8.03;;;;;;;-2.19;70.74;97688.13;5096822;28;20435;-31
2021/12/23 00:23:28;;;;;;;21.80;9.80;;;;;;;-2.21;71.10;97699.63;5055258;28;20474;-32
2021/12/23 00:26:00;;;;;;;21.30;7.33;;;;;;;-2.25;71.13;97696.47;5096348;28;20453;-32
2021/12/23 00:28:29;;;;;;;19.40;7.67;;;;;;;-2.29;71.23;97695.91;5096433;28;20939;-31
2021/12/23 00:30:59;;;;;;;24.47;10.53;;;;;;;-2.30;71.19;97702.06;5096323;28;20431;-32
2021/12/23 00:33:26;;;;;;;17.60;9.10;;;;;;;-2.32;71.43;97703.16;5096224;28;20945;-32
2021/12/23 00:35:54;;;;;;;19.57;9.17;;;;;;;-2.33;71.45;97701.50;5096452;28;20522;-31
2021/12/23 00:38:26;;;;;;;26.47;10.60;;;;;;;-2.34;71.56;97699.88;5096162;28;20930;-31
2021/12/23 00:40:54;;;;;;;27.37;9.87;;;;;;;-2.35;71.68;97698.22;5096163;28;20446;-32
2021/12/23 00:43:22;;;;;;;25.47;9.87;;;;;;;-2.39;71.80;97691.63;5095421;28;20497;-32
2021/12/23 00:45:50;;;;;;;21.20;10.20;;;;;;;-2.41;71.61;97698.72;5096001;28;20968;-32
2021/12/23 00:48:19;;;;;;;21.20;11.10;;;;;;;-2.43;71.85;97695.44;5095929;28;20443;-32
2021/12/23 00:50:47;;;;;;;20.20;11.27;;;;;;;-2.47;72.11;97700.91;5095928;28;20435;-32
2021/12/23 00:53:18;;;;;;;21.63;9.27;;;;;;;-2.49;72.26;97692.44;5095910;28;20439;-32
2021/12/23 00:55:47;;;;;;;21.30;10.40;;;;;;;-2.51;72.16;97689.13;5095821;28;20424;-32
2021/12/23 00:58:14;;;;;;;12.53;8.87;;;;;;;-2.55;72.34;97687.75;5095740;28;20451;-32
2021/12/23 01:00:42;;;;;;;19.47;10.27;;;;;;;-2.59;72.32;97694.16;5095986;28;20443;-32
2021/12/23 01:03:09;;;;;;;18.40;9.13;;;;;;;-2.61;72.52;97698.66;5095605;28;20866;-31
2021/12/23 01:05:38;;;;;;;23.00;9.70;;;;;;;-2.62;72.83;97685.81;5095573;28;20446;-31
2021/12/23 01:08:06;;;;;;;19.23;9.83;;;;;;;-2.74;72.70;97662.50;5095562;28;20442;-31
2021/12/23 01:10:34;;;;;;;17.77;10.27;;;;;;;-2.63;72.96;97678.97;5095524;28;20523;-32
2021/12/23 01:13:03;;;;;;;17.17;8.20;;;;;;;-2.65;73.01;97681.69;5095408;28;20597;-32
2021/12/23 01:15:57;;;;;;;23.70;9.87;;;;;;;-2.65;72.89;97681.69;5096243;28;20447;-31
2021/12/23 01:18:25;;;;;;;22.73;7.67;;;;;;;-2.66;72.94;97674.84;5095474;28;20864;-31
2021/12/23 01:21:03;;;;;;;18.23;9.70;;;;;;;-2.66;73.17;97680.06;5095095;28;20816;-31
2021/12/23 01:23:34;;;;;;;20.97;8.50;;;;;;;-2.84;73.46;97643.44;5095582;28;20490;-32
2021/12/23 01:26:01;;;;;;;28.40;8.47;;;;;;;-2.66;73.22;97674.03;5095239;28;20435;-31
2021/12/23 01:28:29;;;;;;;22.17;10.30;;;;;;;-2.68;73.42;97674.97;5095489;28;20443;-31
2021/12/23 01:30:56;;;;;;;20.80;9.13;;;;;;;-2.68;73.69;97671.56;5095173;28;20475;-32
2021/12/23 01:33:23;;;;;;;19.67;9.53;;;;;;;-2.67;73.58;97675.78;5095364;28;20443;-32
2021/12/23 01:35:51;;;;;;;15.67;8.70;;;;;;;-2.68;73.75;97671.56;5094991;28;20439;-32
2021/12/23 01:38:19;;;;;;;9.60;7.57;;;;;;;-2.68;73.88;97671.56;5094892;28;20439;-32
2021/12/23 01:40:47;;;;;;;18.30;7.37;;;;;;;-2.70;73.84;97674.28;5095214;28;20458;-32
2021/12/23 01:43:17;;;;;;;20.10;8.13;;;;;;;-2.70;73.90;97670.88;5094810;28;20849;-32
2021/12/23 01:45:46;;;;;;;8.33;6.27;;;;;;;-2.70;74.10;97673.47;5094879;28;20504;-32
2021/12/23 01:48:13;;;;;;;23.30;10.23;;;;;;;-2.72;74.07;97664.97;5094744;28;20447;-32
2021/12/23 01:50:41;;;;;;;16.50;7.90;;;;;;;-2.72;74.25;97668.38;5095045;28;20466;-32
2021/12/23 01:53:09;;;;;;;15.27;7.20;;;;;;;-2.72;73.89;97665.78;5094210;28;21044;-32
2021/12/23 01:55:38;;;;;;;10.43;5.30;;;;;;;-2.72;74.30;97664.97;5094311;28;20450;-31
2021/12/23 01:58:07;;;;;;;10.87;7.50;;;;;;;-2.73;74.49;97661.56;5094912;28;20446;-32
2021/12/23 02:00:37;;;;;;;12.80;7.40;;;;;;;-2.75;74.01;97665.25;5094806;28;20810;-32
2021/12/23 02:03:06;;;;;;;13.07;6.70;;;;;;;-2.78;73.98;97660.28;5094418;28;21016;-32
2021/12/23 02:05:34;;;;;;;18.43;8.60;;;;;;;-2.79;73.86;97658.66;5094377;28;20439;-32
2021/12/23 02:08:01;;;;;;;23.33;8.70;;;;;;;-2.83;73.78;97655.50;5094420;28;20438;-32
2021/12/23 02:10:29;;;;;;;18.73;10.50;;;;;;;-2.85;73.68;97656.59;5095137;28;20453;-32
2021/12/23 02:12:58;;;;;;;12.40;7.87;;;;;;;-2.87;73.62;97659.31;5094296;28;20450;-33
2021/12/23 02:15:26;;;;;;;20.40;9.63;;;;;;;-2.90;73.72;97668.19;5094309;28;20439;-32
2021/12/23 02:17:54;;;;;;;17.40;7.93;;;;;;;-2.91;73.48;97658.72;5094160;28;20450;-32
2021/12/23 02:20:25;;;;;;;17.60;9.03;;;;;;;-2.93;73.32;97655.44;5094052;28;20475;-33
2021/12/23 02:22:53;;;;;;;11.43;7.40;;;;;;;-3.02;73.42;97643.25;5094137;28;20471;-32
2021/12/23 02:25:20;;;;;;;10.83;6.10;;;;;;;-3.00;73.53;97659.53;5094118;28;20442;-32
2021/12/23 02:27:49;;;;;;;12.43;6.10;;;;;;;-3.00;73.61;97654.31;5094095;28;20443;-32
2021/12/23 02:30:18;;;;;;;14.77;6.50;;;;;;;-3.03;73.59;97652.00;5093999;28;20443;-32
2021/12/23 02:32:46;;;;;;;8.80;6.30;;;;;;;-3.05;74.02;97653.91;5094010;28;20453;-32
2021/12/23 02:35:16;;;;;;;15.67;7.33;;;;;;;-3.10;74.01;97649.09;5093881;28;20926;-32
2021/12/23 02:37:47;;;;;;;12.23;5.40;;;;;;;-3.07;73.74;97655.81;5094300;28;20457;-33
2021/12/23 02:40:26;;;;;;;22.10;7.30;;;;;;;-3.09;73.72;97650.72;5093936;28;20481;-32
2021/12/23 02:42:53;;;;;;;17.60;8.80;;;;;;;-3.09;74.14;97655.09;5093778;28;20481;-32
2021/12/23 02:45:21;;;;;;;22.70;9.90;;;;;;;-3.10;74.22;97651.69;5093738;28;20450;-32
2021/12/23 02:47:48;;;;;;;23.33;9.67;;;;;;;-3.12;74.50;97655.34;5093766;28;20438;-32
2021/12/23 02:50:15;;;;;;;21.33;11.20;;;;;;;-3.15;74.24;97653.03;5093663;28;20443;-32
2021/12/23 02:52:44;;;;;;;25.93;10.37;;;;;;;-3.18;74.44;97658.50;5093682;28;20990;-32
2021/12/23 02:55:11;;;;;;;24.17;11.17;;;;;;;-3.21;75.14;97643.16;5094002;28;20450;-32
2021/12/23 02:57:39;;;;;;;23.47;10.53;;;;;;;-3.21;75.27;97650.94;5093603;28;20926;-32
2021/12/23 03:00:08;;;;;;;18.83;8.53;;;;;;;-3.22;75.30;97662.28;5093619;28;20439;-32
2021/12/23 03:02:39;;;;;;;20.87;10.40;;;;;;;-3.23;75.76;97652.84;5094244;28;20556;-32
2021/12/23 03:05:07;;;;;;;10.00;7.37;;;;;;;-3.25;75.52;97663.34;5093729;28;20431;-33
2021/12/23 03:07:35;;;;;;;18.03;7.40;;;;;;;-3.27;75.89;97654.84;5093441;28;20435;-31
2021/12/23 03:10:05;;;;;;;16.60;7.00;;;;;;;-3.27;76.07;97649.66;5093491;28;20930;-31
2021/12/23 03:12:33;;;;;;;28.53;11.23;;;;;;;-3.30;75.92;97642.97;5093456;28;20445;-31
2021/12/23 03:15:00;;;;;;;31.17;12.03;;;;;;;-3.36;76.20;97653.03;5093399;28;20453;-31
2021/12/23 03:17:28;;;;;;;24.90;11.67;;;;;;;-3.52;76.17;97630.13;5093704;28;20439;-32
2021/12/23 03:19:55;;;;;;;19.87;8.80;;;;;;;-3.37;76.70;97654.00;5093266;28;20478;-31
2021/12/23 03:22:22;;;;;;;16.20;7.27;;;;;;;-3.35;76.72;97650.31;5093291;28;20439;-32
2021/12/23 03:24:50;;;;;;;14.33;6.73;;;;;;;-3.33;76.85;97656.22;5093686;28;20450;-32
2021/12/23 03:27:18;;;;;;;12.70;7.10;;;;;;;-3.28;76.88;97652.41;5093672;28;20447;-32
2021/12/23 03:29:46;;;;;;;40.90;17.47;;;;;;;-3.28;76.38;97657.59;5093247;28;20446;-32
2021/12/23 03:32:13;;;;;;;46.87;18.67;;;;;;;-3.33;76.44;97648.41;5093597;28;20788;-32
2021/12/23 03:34:40;;;;;;;43.00;17.67;;;;;;;-3.35;76.98;97658.13;5093605;28;20457;-32
2021/12/23 03:37:08;;;;;;;37.23;18.10;;;;;;;-3.35;77.35;97637.34;5093467;28;20442;-32
2021/12/23 03:39:35;;;;;;;45.60;18.13;;;;;;;-3.33;77.24;97651.00;5093174;28;20821;-32
2021/12/23 03:42:03;;;;;;;46.60;22.13;;;;;;;-3.32;77.55;97657.84;5093483;28;20489;-32
2021/12/23 03:44:31;;;;;;;38.73;21.47;;;;;;;-3.30;77.85;97655.94;5093086;28;20561;-32
2021/12/23 03:46:59;;;;;;;32.40;15.23;;;;;;;-3.27;77.87;97660.06;5093488;28;20465;-32
2021/12/23 03:49:26;;;;;;;36.47;13.37;;;;;;;-3.23;77.75;97652.84;5093065;28;20775;-32
2021/12/23 03:51:53;;;;;;;38.00;19.97;;;;;;;-3.23;77.97;97651.06;5093353;28;20449;-31
2021/12/23 03:54:21;;;;;;;45.83;22.03;;;;;;;-3.24;78.29;97648.59;5093026;28;20449;-32
2021/12/23 03:56:48;;;;;;;49.07;21.20;;;;;;;-3.25;78.35;97652.97;5093034;28;20926;-32
2021/12/23 03:59:15;;;;;;;60.63;22.80;;;;;;;-3.26;78.33;97666.91;5093024;28;20449;-32
2021/12/23 04:01:44;;;;;;;68.67;25.60;;;;;;;-3.28;78.94;97658.41;5093231;28;20443;-32
2021/12/23 04:04:11;;;;;;;82.97;28.40;;;;;;;-3.28;79.04;97668.00;5092857;28;20883;-32
2021/12/23 04:06:39;;;;;;;57.10;26.17;;;;;;;-3.30;78.81;97661.13;5093207;28;20449;-32
2021/12/23 04:09:06;;;;;;;35.00;14.93;;;;;;;-3.34;79.09;97664.94;5093250;28;20447;-32
2021/12/23 04:11:33;;;;;;;30.97;17.20;;;;;;;-3.37;79.09;97659.19;5093214;28;20930;-32
2021/12/23 04:14:00;;;;;;;37.53;17.30;;;;;;;-3.41;79.39;97658.63;5092876;28;20446;-32
2021/12/23 04:16:28;;;;;;;30.03;14.80;;;;;;;-3.45;79.12;97670.22;5092881;28;20450;-32
2021/12/23 04:18:57;;;;;;;47.13;15.80;;;;;;;-3.47;79.85;97659.13;5096544;28;20937;-32
2021/12/23 04:21:24;;;;;;;38.37;20.57;;;;;;;-3.51;79.55;97660.31;5096331;28;20474;-32
2021/12/23 04:23:52;;;;;;;39.23;16.57;;;;;;;-3.53;79.17;97659.63;5096667;28;20497;-33
2021/12/23 04:26:19;;;;;;;36.40;16.67;;;;;;;-3.54;79.38;97668.38;5096716;28;20447;-32
2021/12/23 04:28:47;;;;;;;40.93;18.83;;;;;;;-3.56;79.32;97665.09;5096386;28;20443;-33
2021/12/23 04:31:17;;;;;;;45.47;17.80;;;;;;;-3.56;79.37;97670.28;5096585;28;20836;-32
2021/12/23 04:33:45;;;;;;;54.33;25.17;;;;;;;-3.57;79.38;97658.22;5096632;28;20492;-32
2021/12/23 04:36:14;;;;;;;72.13;26.50;;;;;;;-3.60;79.25;97658.50;5096436;28;20469;-32
2021/12/23 04:38:43;;;;;;;72.63;27.93;;;;;;;-3.62;79.20;97657.78;5096166;28;20447;-32
2021/12/23 04:41:11;;;;;;;50.40;22.53;;;;;;;-3.64;79.50;97651.91;5096347;28;20443;-32
2021/12/23 04:43:39;;;;;;;51.33;20.63;;;;;;;-3.66;79.77;97670.19;5096027;28;20486;-32
2021/12/23 04:46:07;;;;;;;71.63;27.30;;;;;;;-3.74;79.62;97652.66;5095293;28;20447;-33
2021/12/23 04:48:35;;;;;;;56.83;27.40;;;;;;;-3.69;79.46;97654.06;5093754;28;20490;-32
2021/12/23 04:51:03;;;;;;;79.87;28.43;;;;;;;-3.92;79.49;97638.59;5093819;28;20443;-33
2021/12/23 04:53:32;;;;;;;84.13;35.07;;;;;;;-3.75;79.96;97666.56;5093741;28;20617;-32
2021/12/23 04:55:59;;;;;;;82.50;33.37;;;;;;;-3.78;79.45;97651.25;5093787;28;20454;-32
2021/12/23 04:58:27;;;;;;;59.10;27.77;;;;;;;-3.81;79.34;97664.47;5093700;28;20447;-33
2021/12/23 05:00:54;;;;;;;47.63;22.97;;;;;;;-3.82;79.13;97664.63;5093536;28;20458;-32
2021/12/23 05:03:23;;;;;;;52.03;26.50;;;;;;;-3.85;79.42;97657.91;5093525;28;21023;-32
2021/12/23 05:05:51;;;;;;;60.13;27.90;;;;;;;-3.88;79.03;97657.34;5093851;28;20442;-32
2021/12/23 05:08:19;;;;;;;81.73;33.00;;;;;;;-3.91;79.19;97651.44;5093359;28;20441;-32
2021/12/23 05:10:48;;;;;;;79.63;32.50;;;;;;;-3.91;79.18;97661.81;5093460;28;20449;-32
2021/12/23 05:13:15;;;;;;;83.43;38.67;;;;;;;-3.89;79.12;97663.44;5093273;28;20469;-33
2021/12/23 05:15:43;;;;;;;88.17;38.90;;;;;;;-3.93;79.65;97668.09;5093323;28;20450;-32
2021/12/23 05:18:10;;;;;;;85.10;41.77;;;;;;;-3.96;79.46;97668.31;5093421;28;20442;-32
2021/12/23 05:20:38;;;;;;;80.37;36.17;;;;;;;-4.00;79.85;97662.56;5093162;28;20471;-32
2021/12/23 05:23:05;;;;;;;105.20;43.23;;;;;;;-4.02;79.65;97664.47;5093403;28;20443;-32
2021/12/23 05:25:33;;;;;;;94.17;42.23;;;;;;;-4.02;80.12;97661.03;5092997;28;20439;-32
2021/12/23 05:28:01;;;;;;;107.50;43.73;;;;;;;-4.03;80.09;97677.56;5093107;28;20439;-32
2021/12/23 05:30:29;;;;;;;111.10;43.17;;;;;;;-4.05;79.97;97674.25;5093384;28;20938;-32
2021/12/23 05:32:56;;;;;;;100.17;42.03;;;;;;;-4.06;80.08;97677.81;5093069;28;20919;-32
2021/12/23 05:35:24;;;;;;;92.57;40.40;;;;;;;-4.10;79.71;97671.22;5093309;28;20442;-32
2021/12/23 05:37:53;;;;;;;96.80;36.33;;;;;;;-4.12;80.27;97672.16;5092597;28;20442;-32
2021/12/23 05:40:23;;;;;;;68.57;31.40;;;;;;;-4.13;80.34;97672.25;5095190;28;20443;-32
2021/12/23 05:42:52;;;;;;;71.47;31.67;;;;;;;-4.14;80.00;97675.81;5094946;28;20431;-32
2021/12/23 05:45:21;;;;;;;69.50;30.20;;;;;;;-4.18;79.78;97675.22;5094746;28;20494;-32
2021/12/23 05:47:49;;;;;;;67.33;28.90;;;;;;;-4.18;80.01;97669.22;5094815;28;20445;-32
2021/12/23 05:50:19;;;;;;;40.80;23.10;;;;;;;-4.19;79.85;97673.59;5094739;28;20447;-32
2021/12/23 05:52:47;;;;;;;35.97;20.50;;;;;;;-4.29;79.35;97657.09;5094752;28;20446;-32
2021/12/23 05:55:15;;;;;;;37.87;19.97;;;;;;;-4.17;79.02;97682.06;5094688;28;20446;-32
2021/12/23 05:57:43;;;;;;;41.03;22.97;;;;;;;-4.17;78.78;97674.28;5094619;28;20450;-32
2021/12/23 06:00:14;;;;;;;62.10;29.60;;;;;;;-4.17;78.94;97674.28;5093302;28;21251;-32
2021/12/23 06:02:42;;;;;;;63.83;31.27;;;;;;;-4.16;79.07;97673.34;5092655;28;20488;-32
2021/12/23 06:05:10;;;;;;;77.60;40.33;;;;;;;-4.06;79.05;97678.63;5092746;28;20490;-32
2021/12/23 06:07:38;;;;;;;56.13;30.30;;;;;;;-3.85;78.57;97677.81;5092385;28;20439;-33
2021/12/23 06:10:06;;;;;;;73.20;32.30;;;;;;;-3.64;77.98;97709.00;5092695;28;20470;-32
2021/12/23 06:12:33;;;;;;;77.17;36.27;;;;;;;-3.37;77.20;97680.78;5092342;28;20800;-32
2021/12/23 06:15:01;;;;;;;74.70;33.40;;;;;;;-3.13;76.73;97677.91;5091803;28;20454;-31
2021/12/23 06:17:28;;;;;;;71.67;32.83;;;;;;;-2.89;75.77;97693.22;5092283;28;20571;-32
2021/12/23 06:19:57;;;;;;;73.67;36.73;;;;;;;-2.63;75.01;97689.34;5091968;28;21269;-32
2021/12/23 06:22:24;;;;;;;70.00;31.90;;;;;;;-2.40;74.38;97685.59;5092411;28;20439;-31
2021/12/23 06:24:52;;;;;;;61.67;33.97;;;;;;;-2.17;73.06;97678.41;5091981;28;20892;-32
2021/12/23 06:27:22;;;;;;;77.93;35.73;;;;;;;-1.98;72.57;97685.41;5091932;28;20443;-32
2021/12/23 06:29:49;;;;;;;81.87;35.03;;;;;;;-1.79;72.15;97686.38;5092310;28;20789;-32
2021/12/23 06:32:16;;;;;;;77.33;33.43;;;;;;;-1.60;71.51;97695.97;5092496;28;20439;-32
2021/12/23 06:34:44;;;;;;;115.73;53.47;;;;;;;-1.42;70.87;97689.09;5093966;28;20439;-31
2021/12/23 06:37:12;;;;;;;175.20;82.97;;;;;;;-1.24;70.30;97690.03;5093952;28;20443;-31
2021/12/23 06:39:40;;;;;;;139.67;63.00;;;;;;;-1.07;69.18;97690.28;5093494;28;20922;-32
2021/12/23 06:42:08;;;;;;;110.00;50.57;;;;;;;-1.18;68.81;97672.19;5093803;28;20442;-31
2021/12/23 06:44:35;;;;;;;103.93;49.93;;;;;;;-0.91;68.04;97690.50;5094095;28;20875;-31
2021/12/23 06:47:03;;;;;;;199.23;90.57;;;;;;;-0.81;67.62;97689.69;5093754;28;20439;-32
2021/12/23 06:49:31;;;;;;;142.83;59.50;;;;;;;-0.71;66.64;97690.44;5092638;28;20862;-33
2021/12/23 06:52:00;;;;;;;75.43;36.17;;;;;;;-0.63;66.46;97698.38;5091494;28;20447;-34
2021/12/23 06:54:28;;;;;;;103.17;46.70;;;;;;;-0.50;66.31;97696.25;5093620;28;20439;-34
2021/12/23 06:56:56;;;;;;;76.00;33.77;;;;;;;-0.37;65.37;97697.72;5093657;28;20945;-32
2021/12/23 06:59:23;;;;;;;102.17;46.27;;;;;;;-0.28;64.55;97707.28;5093599;28;20435;-33
2021/12/23 07:01:50;;;;;;;68.47;33.47;;;;;;;-0.18;64.11;97692.38;5093595;28;20447;-33
2021/12/23 07:04:20;;;;;;;66.47;31.40;;;;;;;-0.13;63.59;97692.78;5093461;28;20482;-33
2021/12/23 07:06:56;;;;;;;85.30;40.50;;;;;;;-0.09;64.08;97701.94;5093850;28;20427;-33
2021/12/23 07:09:24;;;;;;;55.70;21.47;;;;;;;0.00;63.71;97695.06;5093863;28;20469;-33
2021/12/23 07:11:52;;;;;;;43.10;18.70;;;;;;;0.07;63.71;97695.28;5093331;28;20439;-31
2021/12/23 07:14:20;;;;;;;41.33;17.90;;;;;;;0.16;64.20;97699.59;5092149;28;20442;-32
2021/12/23 07:16:47;;;;;;;52.93;24.83;;;;;;;0.24;63.93;97696.22;5091205;28;20438;-31
2021/12/23 07:19:14;;;;;;;55.43;28.47;;;;;;;0.27;63.23;97696.75;5091464;28;20447;-31
2021/12/23 07:21:41;;;;;;;42.17;20.90;;;;;;;0.32;63.68;97689.31;5091759;28;20423;-32
2021/12/23 07:24:09;;;;;;;75.17;33.93;;;;;;;0.39;63.21;97690.34;5091500;28;20494;-32
2021/12/23 07:26:36;;;;;;;41.40;21.83;;;;;;;0.46;63.14;97695.78;5091589;28;20443;-32
2021/12/23 07:29:04;;;;;;;31.47;19.57;;;;;;;0.56;62.45;97685.25;5091036;28;20454;-32
2021/12/23 07:31:32;;;;;;;36.23;17.80;;;;;;;0.52;62.79;97663.03;5091595;28;20443;-32
2021/12/23 07:33:59;;;;;;;20.90;15.00;;;;;;;0.77;62.42;97698.00;5091087;28;20439;-31
2021/12/23 07:36:27;;;;;;;24.47;12.70;;;;;;;0.73;61.38;97676.59;5091134;28;20486;-31
2021/12/23 07:38:55;;;;;;;25.20;13.63;;;;;;;0.93;61.51;97692.91;5092519;28;20961;-32
2021/12/23 07:41:23;;;;;;;55.53;23.37;;;;;;;1.05;61.27;97695.25;5093199;28;20442;-31
2021/12/23 07:43:58;;;;;;;18.73;11.50;;;;;;;1.13;60.91;97693.50;5090346;28;20435;-32
2021/12/23 07:46:29;;;;;;;29.53;14.40;;;;;;;1.16;60.49;97698.44;5091116;28;20458;-30
2021/12/23 07:48:57;;;;;;;31.10;16.67;;;;;;;1.26;60.74;97687.84;5091058;28;20439;-32
2021/12/23 07:51:25;;;;;;;50.50;25.90;;;;;;;1.34;59.98;97687.91;5091293;28;20439;-31
2021/12/23 07:53:54;;;;;;;31.50;19.80;;;;;;;1.47;59.27;97700.56;5094933;28;20441;-31
2021/12/23 07:56:21;;;;;;;21.03;12.20;;;;;;;1.55;58.34;97697.13;5094784;28;20474;-32
2021/12/23 07:58:49;;;;;;;14.87;12.20;;;;;;;1.58;58.03;97687.19;5095269;28;20801;-32
2021/12/23 08:01:16;;;;;;;13.23;7.90;;;;;;;1.58;57.61;97692.41;5094867;28;20933;-32
2021/12/23 08:03:45;;;;;;;14.53;8.10;;;;;;;1.68;58.50;97699.31;5094762;28;20442;-31
2021/12/23 08:06:13;;;;;;;11.00;8.13;;;;;;;1.79;57.52;97691.19;5095102;28;20490;-31
2021/12/23 08:08:40;;;;;;;12.87;8.50;;;;;;;1.84;56.97;97683.69;5094279;28;20439;-32
2021/12/23 08:11:07;;;;;;;33.60;13.67;;;;;;;1.98;57.56;97677.84;5094937;28;20453;-31
2021/12/23 08:13:36;;;;;;;11.57;8.37;;;;;;;2.06;57.11;97690.13;5094918;28;20447;-31
2021/12/23 08:16:04;;;;;;;13.33;6.83;;;;;;;2.15;56.57;97693.56;5094626;28;20461;-32
2021/12/23 08:18:32;;;;;;;11.73;5.60;;;;;;;2.15;56.64;97698.81;5094554;28;20439;-31
2021/12/23 08:21:02;;;;;;;11.67;6.07;;;;;;;2.00;55.57;97702.06;5094119;28;20470;-32
2021/12/23 08:23:29;;;;;;;10.73;5.00;;;;;;;1.86;56.38;97705.28;5094498;28;20447;-31
2021/12/23 08:26:00;;;;;;;6.07;4.30;;;;;;;1.87;55.86;97701.69;5094242;28;20993;-31
2021/12/23 08:28:28;;;;;;;11.90;5.30;;;;;;;1.80;56.82;97701.50;5094384;28;20447;-31
2021/12/23 08:30:55;;;;;;;16.10;7.23;;;;;;;1.84;57.01;97702.00;5094190;28;20435;-31
2021/12/23 08:33:22;;;;;;;13.43;6.00;;;;;;;1.94;57.13;97691.41;5094233;28;20529;-32
2021/12/23 08:35:50;;;;;;;9.40;6.43;;;;;;;2.13;57.38;97685.03;5093803;28;20443;-31
2021/12/23 08:38:19;;;;;;;12.73;6.83;;;;;;;2.28;56.52;97683.47;5094403;28;20447;-32
2021/12/23 08:40:47;;;;;;;11.63;8.03;;;;;;;2.37;56.09;97685.09;5094222;28;20504;-31
2021/12/23 08:43:14;;;;;;;7.83;6.67;;;;;;;2.44;55.77;97686.09;5096075;28;20522;-31
2021/12/23 08:45:42;;;;;;;27.57;10.57;;;;;;;2.35;55.39;97663.47;5097120;28;20494;-30
2021/12/23 08:48:09;;;;;;;7.73;5.87;;;;;;;2.30;53.95;97688.53;5093565;28;20917;-31
2021/12/23 08:50:36;;;;;;;11.97;5.90;;;;;;;2.25;55.21;97678.53;5094215;28;20439;-32
2021/12/23 08:53:04;;;;;;;15.17;9.77;;;;;;;2.17;55.74;97652.31;5094184;28;20469;-31
2021/12/23 08:55:33;;;;;;;16.20;7.77;;;;;;;2.41;54.99;97673.31;5094055;28;20465;-31
2021/12/23 08:58:04;;;;;;;12.10;6.10;;;;;;;2.42;54.18;97671.50;5094087;28;20455;-31
2021/12/23 09:00:33;;;;;;;15.20;8.30;;;;;;;2.52;54.53;97669.53;5093572;28;20861;-31
2021/12/23 09:03:00;;;;;;;11.40;5.80;;;;;;;2.68;53.86;97660.84;5093402;28;20447;-32
2021/12/23 09:05:28;;;;;;;13.67;8.07;;;;;;;2.68;52.97;97639.88;5093787;28;20491;-31
2021/12/23 09:07:55;;;;;;;11.43;5.50;;;;;;;2.73;51.86;97652.47;5093568;28;20465;-32
2021/12/23 09:10:23;;;;;;;12.03;8.20;;;;;;;2.92;52.08;97656.56;5093581;28;20449;-32
2021/12/23 09:12:53;;;;;;;10.40;6.60;;;;;;;3.04;52.19;97652.59;5093276;28;20435;-32
2021/12/23 09:15:21;;;;;;;14.43;6.63;;;;;;;3.09;52.43;97660.78;5093735;28;20446;-32
2021/12/23 09:17:48;;;;;;;7.20;5.37;;;;;;;3.10;51.65;97651.09;5093326;28;20447;-31
2021/12/23 09:20:18;;;;;;;8.63;6.40;;;;;;;3.05;52.33;97641.13;5093170;28;20510;-32
2021/12/23 09:22:45;;;;;;;6.47;4.37;;;;;;;3.06;51.19;97640.94;5093344;28;20534;-31
2021/12/23 09:25:23;;;;;;;6.90;4.30;;;;;;;2.89;51.14;97635.91;5095228;28;20491;-31
2021/12/23 09:28:02;;;;;;;8.80;3.87;;;;;;;2.81;51.26;97627.06;5095235;28;20438;-31
2021/12/23 09:33:16;;;;;;;11.00;5.37;;;;;;;2.60;50.49;97630.22;5095281;28;20469;-31
2021/12/23 09:35:43;;;;;;;14.57;8.87;;;;;;;2.67;50.78;97622.50;5095381;28;20785;-31
2021/12/23 09:38:11;;;;;;;7.63;4.93;;;;;;;2.60;51.55;97624.13;5095286;28;20454;-31
2021/12/23 09:40:40;;;;;;;6.07;3.17;;;;;;;2.48;52.76;97620.22;5095068;28;20927;-31
2021/12/23 09:43:10;;;;;;;14.90;7.20;;;;;;;2.37;53.41;97613.53;5094857;28;20449;-32
2021/12/23 09:45:40;;;;;;;28.00;12.40;;;;;;;2.37;53.82;97609.09;5095204;28;20483;-31
2021/12/23 09:48:08;;;;;;;10.50;8.43;;;;;;;2.22;53.54;97601.06;5094853;28;20450;-31
2021/12/23 09:50:39;;;;;;;9.10;4.43;;;;;;;2.00;53.72;97596.44;5095128;28;20475;-31
2021/12/23 09:53:07;;;;;;;5.83;4.90;;;;;;;1.86;53.69;97576.97;5093629;28;20430;-32
2021/12/23 09:55:36;;;;;;;8.00;5.30;;;;;;;1.86;54.56;97592.69;5092554;28;20957;-31
2021/12/23 09:58:05;;;;;;;18.57;7.97;;;;;;;1.90;53.08;97570.44;5092600;28;20450;-32
2021/12/23 10:00:37;;;;;;;11.13;7.37;;;;;;;2.01;53.47;97575.34;5092571;28;20457;-32
2021/12/23 10:03:05;;;;;;;10.13;4.50;;;;;;;1.94;52.24;97556.03;5092548;28;20510;-30
2021/12/23 10:05:34;;;;;;;21.53;8.97;;;;;;;2.05;52.65;97568.78;5092502;28;20569;-32
2021/12/23 10:08:04;;;;;;;7.90;6.00;;;;;;;2.18;52.91;97567.50;5092202;28;20450;-32
2021/12/23 10:10:36;;;;;;;10.20;6.30;;;;;;;2.21;53.17;97564.53;5092429;28;20438;-31
2021/12/23 10:38:26;;;;;;;8.37;4.70;;;;;;;3.12;50.29;97524.03;5091646;28;20406;-31
2021/12/23 10:40:56;;;;;;;6.10;3.60;;;;;;;3.12;48.66;97515.31;5091837;28;20435;-31
2021/12/23 10:43:28;;;;;;;13.30;6.17;;;;;;;3.01;49.25;97491.09;5091755;28;20457;-31
2021/12/23 10:45:58;;;;;;;4.80;3.93;;;;;;;3.27;48.62;97506.56;5091748;28;20478;-31
2021/12/23 10:48:29;;;;;;;6.23;4.60;;;;;;;3.06;49.11;97493.22;5091778;28;21035;-31
2021/12/23 10:51:02;;;;;;;5.50;4.33;;;;;;;2.99;49.41;97503.56;5091633;28;20427;-32
2021/12/23 10:53:45;;;;;;;17.10;9.60;;;;;;;3.02;49.88;97481.41;5091665;28;20453;-32
2021/12/23 10:59:12;;;;;;;5.33;3.80;;;;;;;2.79;49.86;97461.19;5091706;28;20451;-31
2021/12/23 11:02:03;;;;;;;17.20;7.83;;;;;;;2.80;50.13;97475.94;5091517;28;20522;-31
2021/12/23 11:04:37;;;;;;;7.57;4.90;;;;;;;2.76;49.81;97463.34;5091083;28;20489;-32
2021/12/23 11:07:17;;;;;;;3.50;3.20;;;;;;;2.72;50.01;97465.47;5091548;28;20523;-32
2021/12/23 11:10:11;;;;;;;3.17;2.87;;;;;;;2.70;49.95;97462.22;5091485;28;20930;-31
2021/12/23 11:38:22;;;;;;;13.83;5.77;;;;;;;3.03;49.17;97435.81;5071203;28;20533;-31
2021/12/23 11:40:54;;;;;;;8.57;4.60;;;;;;;3.08;48.26;97433.50;5097722;28;20488;-31
2021/12/23 11:43:30;;;;;;;11.10;5.27;;;;;;;3.02;47.60;97439.44;5097355;28;20431;-31
2021/12/23 11:45:57;;;;;;;5.10;4.70;;;;;;;3.00;47.44;97441.44;5097197;28;20473;-31
2021/12/23 11:48:25;;;;;;;4.63;3.60;;;;;;;2.84;47.84;97426.59;5097461;28;20454;-31
2021/12/23 11:51:06;;;;;;;3.90;3.50;;;;;;;2.90;49.37;97419.84;5097432;28;20442;-31
2021/12/23 11:53:36;;;;;;;6.53;2.47;;;;;;;3.00;48.78;97415.19;5097174;28;20997;-31
2021/12/23 11:56:06;;;;;;;10.70;6.80;;;;;;;3.08;48.87;97420.41;5097121;28;20922;-32
2021/12/23 11:58:34;;;;;;;8.50;6.07;;;;;;;3.05;49.68;97418.09;5095087;28;20435;-33
2021/12/23 12:01:04;;;;;;;8.33;4.53;;;;;;;3.07;48.50;97409.06;5095970;28;20438;-31
2021/12/23 12:03:32;;;;;;;8.70;6.03;;;;;;;3.03;48.46;97410.44;5096931;28;20915;-31
2021/12/23 12:06:15;;;;;;;6.23;4.10;;;;;;;3.01;48.83;97406.31;5096720;28;20848;-31
2021/12/23 12:08:44;;;;;;;5.93;4.40;;;;;;;2.81;48.57;97385.78;5095436;28;20482;-31
2021/12/23 12:11:16;;;;;;;4.40;3.10;;;;;;;2.96;48.12;97403.41;5096727;28;20449;-31
2021/12/23 12:13:44;;;;;;;9.00;5.30;;;;;;;2.87;48.36;97406.06;5096777;28;20447;-33
2021/12/23 12:16:27;;;;;;;8.90;4.97;;;;;;;2.89;48.67;97402.47;5093954;28;20442;-32
2021/12/23 12:18:54;;;;;;;4.57;3.17;;;;;;;2.90;48.29;97397.03;5094577;28;20429;-31
2021/12/23 12:21:23;;;;;;;5.73;5.13;;;;;;;2.90;49.49;97402.28;5094389;28;20831;-32
2021/12/23 12:24:16;;;;;;;10.23;6.53;;;;;;;2.87;48.68;97406.06;5094708;28;20485;-30
2021/12/23 12:27:01;;;;;;;4.97;4.17;;;;;;;2.86;48.07;97393.97;5094346;28;21008;-32
2021/12/23 12:29:36;;;;;;;5.33;3.70;;;;;;;2.82;48.05;97402.34;5094306;28;20922;-31
2021/12/23 12:32:05;;;;;;;8.90;6.40;;;;;;;2.85;48.59;97392.31;5094677;28;20427;-32